sensor_id;sensor_type;location;lat;lon;timestamp;temperature;humidity
48488;DHT22;34289;48.572;13.378;2022-11-20T00:01:03;2.70;99.90
48488;DHT22;34289;48.572;13.378;2022-11-20T00:03:29;2.70;99.90
48488;DHT22;34289;48.572;13.378;2022-11-20T00:06:18;2.70;99.90
48488;DHT22;34289;48.572;13.378;2022-11-20T00:08:45;2.70;99.90
48488;DHT22;34289;48.572;13.378;2022-11-20T00:11:16;2.90;99.90
48488;DHT22;34289;48.572;13.378;2022-11-20T00:13:43;2.90;99.90
48488;DHT22;34289;48.572;13.378;2022-11-20T00:16:10;2.70;99.90
48488;DHT22;34289;48.572;13.378;2022-11-20T00:18:36;2.60;99.90
48488;DHT22;34289;48.572;13.378;2022-11-20T00:23:29;2.70;99.90
48488;DHT22;34289;48.572;13.378;2022-11-20T00:25:55;2.70;99.90
48488;DHT22;34289;48.572;13.378;2022-11-20T00:28:20;2.70;99.90
48488;DHT22;34289;48.572;13.378;2022-11-20T00:30:46;2.60;99.90
48488;DHT22;34289;48.572;13.378;2022-11-20T00:33:11;2.60;99.90
48488;DHT22;34289;48.572;13.378;2022-11-20T00:35:37;2.60;99.90
48488;DHT22;34289;48.572;13.378;2022-11-20T00:38:02;2.60;99.90
48488;DHT22;34289;48.572;13.378;2022-11-20T00:40:28;2.50;99.90
48488;DHT22;34289;48.572;13.378;2022-11-20T00:42:54;2.50;99.90
48488;DHT22;34289;48.572;13.378;2022-11-20T00:45:19;2.50;99.90
48488;DHT22;34289;48.572;13.378;2022-11-20T00:47:45;2.50;99.90
48488;DHT22;34289;48.572;13.378;2022-11-20T00:50:11;2.40;99.90
48488;DHT22;34289;48.572;13.378;2022-11-20T00:52:36;2.40;99.90
48488;DHT22;34289;48.572;13.378;2022-11-20T00:55:02;2.40;99.90
48488;DHT22;34289;48.572;13.378;2022-11-20T00:57:27;2.60;99.90
48488;DHT22;34289;48.572;13.378;2022-11-20T00:59:53;2.50;99.90
48488;DHT22;34289;48.572;13.378;2022-11-20T01:02:19;2.50;99.90
48488;DHT22;34289;48.572;13.378;2022-11-20T01:04:45;2.60;99.90
48488;DHT22;34289;48.572;13.378;2022-11-20T01:07:10;2.70;99.90
48488;DHT22;34289;48.572;13.378;2022-11-20T01:09:36;2.70;99.90
48488;DHT22;34289;48.572;13.378;2022-11-20T01:12:02;2.70;99.90
48488;DHT22;34289;48.572;13.378;2022-11-20T01:14:27;2.70;99.90
48488;DHT22;34289;48.572;13.378;2022-11-20T01:16:53;2.70;99.90
48488;DHT22;34289;48.572;13.378;2022-11-20T01:19:21;2.70;99.90
48488;DHT22;34289;48.572;13.378;2022-11-20T01:21:52;2.70;99.90
48488;DHT22;34289;48.572;13.378;2022-11-20T01:24:19;2.80;99.90
48488;DHT22;34289;48.572;13.378;2022-11-20T01:26:50;2.90;99.90
48488;DHT22;34289;48.572;13.378;2022-11-20T01:29:19;2.80;99.90
48488;DHT22;34289;48.572;13.378;2022-11-20T01:31:45;2.70;99.90
48488;DHT22;34289;48.572;13.378;2022-11-20T01:34:13;2.60;99.90
48488;DHT22;34289;48.572;13.378;2022-11-20T01:36:39;2.90;99.90
48488;DHT22;34289;48.572;13.378;2022-11-20T01:39:10;2.70;99.90
48488;DHT22;34289;48.572;13.378;2022-11-20T01:41:36;2.80;99.90
48488;DHT22;34289;48.572;13.378;2022-11-20T01:44:40;2.80;99.90
48488;DHT22;34289;48.572;13.378;2022-11-20T01:47:09;3.00;99.90
48488;DHT22;34289;48.572;13.378;2022-11-20T01:49:40;2.80;99.90
48488;DHT22;34289;48.572;13.378;2022-11-20T01:52:16;2.90;99.90
48488;DHT22;34289;48.572;13.378;2022-11-20T01:55:06;2.80;99.90
48488;DHT22;34289;48.572;13.378;2022-11-20T01:57:34;2.70;99.90
48488;DHT22;34289;48.572;13.378;2022-11-20T02:00:05;2.70;99.90
48488;DHT22;34289;48.572;13.378;2022-11-20T02:02:32;2.70;99.90
48488;DHT22;34289;48.572;13.378;2022-11-20T02:05:02;2.80;99.90
48488;DHT22;34289;48.572;13.378;2022-11-20T02:07:30;2.90;99.90
48488;DHT22;34289;48.572;13.378;2022-11-20T02:09:59;3.00;99.90
48488;DHT22;34289;48.572;13.378;2022-11-20T02:12:24;2.90;99.90
48488;DHT22;34289;48.572;13.378;2022-11-20T02:15:09;3.00;99.90
48488;DHT22;34289;48.572;13.378;2022-11-20T02:17:34;3.00;99.90
48488;DHT22;34289;48.572;13.378;2022-11-20T02:20:00;3.00;99.90
48488;DHT22;34289;48.572;13.378;2022-11-20T02:22:33;3.10;99.90
48488;DHT22;34289;48.572;13.378;2022-11-20T02:25:02;3.10;99.90
48488;DHT22;34289;48.572;13.378;2022-11-20T02:27:29;3.00;99.90
48488;DHT22;34289;48.572;13.378;2022-11-20T02:30:01;3.00;99.90
48488;DHT22;34289;48.572;13.378;2022-11-20T02:32:31;3.10;99.90
48488;DHT22;34289;48.572;13.378;2022-11-20T02:35:43;3.00;99.90
48488;DHT22;34289;48.572;13.378;2022-11-20T02:37:43;3.00;99.90
48488;DHT22;34289;48.572;13.378;2022-11-20T02:40:10;3.00;99.90
48488;DHT22;34289;48.572;13.378;2022-11-20T02:42:36;3.00;99.90
48488;DHT22;34289;48.572;13.378;2022-11-20T02:45:03;3.10;99.90
48488;DHT22;34289;48.572;13.378;2022-11-20T02:47:28;3.00;99.90
48488;DHT22;34289;48.572;13.378;2022-11-20T02:49:54;3.10;99.90
48488;DHT22;34289;48.572;13.378;2022-11-20T02:52:20;3.00;99.90
48488;DHT22;34289;48.572;13.378;2022-11-20T02:54:45;3.10;99.90
48488;DHT22;34289;48.572;13.378;2022-11-20T02:57:11;3.10;99.90
48488;DHT22;34289;48.572;13.378;2022-11-20T02:59:36;3.10;99.90
48488;DHT22;34289;48.572;13.378;2022-11-20T03:02:02;3.10;99.90
48488;DHT22;34289;48.572;13.378;2022-11-20T03:04:27;3.10;99.90
48488;DHT22;34289;48.572;13.378;2022-11-20T03:06:53;3.10;99.90
48488;DHT22;34289;48.572;13.378;2022-11-20T03:09:19;3.10;99.90
48488;DHT22;34289;48.572;13.378;2022-11-20T03:11:44;2.90;99.90
48488;DHT22;34289;48.572;13.378;2022-11-20T03:14:10;2.90;99.90
48488;DHT22;34289;48.572;13.378;2022-11-20T03:16:35;2.90;99.90
48488;DHT22;34289;48.572;13.378;2022-11-20T03:19:01;2.90;99.90
48488;DHT22;34289;48.572;13.378;2022-11-20T03:21:27;2.80;99.90
48488;DHT22;34289;48.572;13.378;2022-11-20T03:23:53;2.80;99.90
48488;DHT22;34289;48.572;13.378;2022-11-20T03:26:22;2.90;99.90
48488;DHT22;34289;48.572;13.378;2022-11-20T03:28:56;2.80;99.90
48488;DHT22;34289;48.572;13.378;2022-11-20T03:31:31;2.80;99.90
48488;DHT22;34289;48.572;13.378;2022-11-20T03:33:57;2.70;99.90
48488;DHT22;34289;48.572;13.378;2022-11-20T03:36:23;2.70;99.90
48488;DHT22;34289;48.572;13.378;2022-11-20T03:38:49;2.80;99.90
48488;DHT22;34289;48.572;13.378;2022-11-20T03:41:23;2.80;99.90
48488;DHT22;34289;48.572;13.378;2022-11-20T03:44:00;2.80;99.90
48488;DHT22;34289;48.572;13.378;2022-11-20T03:46:27;2.80;99.90
48488;DHT22;34289;48.572;13.378;2022-11-20T03:48:53;2.70;99.90
48488;DHT22;34289;48.572;13.378;2022-11-20T03:51:21;2.70;99.90
48488;DHT22;34289;48.572;13.378;2022-11-20T03:53:49;2.80;99.90
48488;DHT22;34289;48.572;13.378;2022-11-20T03:56:17;2.90;99.90
48488;DHT22;34289;48.572;13.378;2022-11-20T03:58:43;3.00;99.90
48488;DHT22;34289;48.572;13.378;2022-11-20T04:01:14;3.00;99.90
48488;DHT22;34289;48.572;13.378;2022-11-20T04:03:41;3.00;99.90
48488;DHT22;34289;48.572;13.378;2022-11-20T04:08:35;3.00;99.90
48488;DHT22;34289;48.572;13.378;2022-11-20T04:13:35;3.10;99.90
48488;DHT22;34289;48.572;13.378;2022-11-20T04:16:01;3.10;99.90
48488;DHT22;34289;48.572;13.378;2022-11-20T04:18:27;3.10;99.90
48488;DHT22;34289;48.572;13.378;2022-11-20T04:20:52;3.20;99.90
48488;DHT22;34289;48.572;13.378;2022-11-20T04:23:18;3.20;99.90
48488;DHT22;34289;48.572;13.378;2022-11-20T04:25:43;3.20;99.90
48488;DHT22;34289;48.572;13.378;2022-11-20T04:28:09;3.30;99.90
48488;DHT22;34289;48.572;13.378;2022-11-20T04:30:35;3.30;99.90
48488;DHT22;34289;48.572;13.378;2022-11-20T04:33:00;3.20;99.90
48488;DHT22;34289;48.572;13.378;2022-11-20T04:35:26;3.20;99.90
48488;DHT22;34289;48.572;13.378;2022-11-20T04:37:52;3.20;99.90
48488;DHT22;34289;48.572;13.378;2022-11-20T04:40:17;3.10;99.90
48488;DHT22;34289;48.572;13.378;2022-11-20T04:42:46;3.10;99.90
48488;DHT22;34289;48.572;13.378;2022-11-20T04:45:12;3.10;99.90
48488;DHT22;34289;48.572;13.378;2022-11-20T04:47:37;3.20;99.90
48488;DHT22;34289;48.572;13.378;2022-11-20T04:50:03;3.10;99.90
48488;DHT22;34289;48.572;13.378;2022-11-20T04:52:29;3.10;99.90
48488;DHT22;34289;48.572;13.378;2022-11-20T04:54:55;3.10;99.90
48488;DHT22;34289;48.572;13.378;2022-11-20T04:57:20;3.00;99.90
48488;DHT22;34289;48.572;13.378;2022-11-20T04:59:46;3.00;99.90
48488;DHT22;34289;48.572;13.378;2022-11-20T05:02:11;3.10;99.90
48488;DHT22;34289;48.572;13.378;2022-11-20T05:04:37;3.00;99.90
48488;DHT22;34289;48.572;13.378;2022-11-20T05:07:03;3.00;99.90
48488;DHT22;34289;48.572;13.378;2022-11-20T05:09:29;3.00;99.90
48488;DHT22;34289;48.572;13.378;2022-11-20T05:11:55;3.10;99.90
48488;DHT22;34289;48.572;13.378;2022-11-20T05:14:21;3.20;99.90
48488;DHT22;34289;48.572;13.378;2022-11-20T05:16:46;3.30;99.90
48488;DHT22;34289;48.572;13.378;2022-11-20T05:19:12;3.20;99.90
48488;DHT22;34289;48.572;13.378;2022-11-20T05:21:37;3.20;99.90
48488;DHT22;34289;48.572;13.378;2022-11-20T05:24:03;3.10;99.90
48488;DHT22;34289;48.572;13.378;2022-11-20T05:26:32;3.20;99.90
48488;DHT22;34289;48.572;13.378;2022-11-20T05:28:57;3.10;99.90
48488;DHT22;34289;48.572;13.378;2022-11-20T05:31:24;3.00;99.90
48488;DHT22;34289;48.572;13.378;2022-11-20T05:33:50;2.90;99.90
48488;DHT22;34289;48.572;13.378;2022-11-20T05:36:16;2.90;99.90
48488;DHT22;34289;48.572;13.378;2022-11-20T05:38:42;3.00;99.90
48488;DHT22;34289;48.572;13.378;2022-11-20T05:41:11;3.10;99.90
48488;DHT22;34289;48.572;13.378;2022-11-20T05:43:39;3.10;99.90
48488;DHT22;34289;48.572;13.378;2022-11-20T05:46:06;3.00;99.90
48488;DHT22;34289;48.572;13.378;2022-11-20T05:48:33;3.00;99.90
48488;DHT22;34289;48.572;13.378;2022-11-20T05:51:00;3.00;99.90
48488;DHT22;34289;48.572;13.378;2022-11-20T05:53:27;3.00;99.90
48488;DHT22;34289;48.572;13.378;2022-11-20T05:56:13;3.00;99.90
48488;DHT22;34289;48.572;13.378;2022-11-20T05:58:39;3.10;99.90
48488;DHT22;34289;48.572;13.378;2022-11-20T06:01:11;3.10;99.90
48488;DHT22;34289;48.572;13.378;2022-11-20T06:03:37;3.20;99.90
48488;DHT22;34289;48.572;13.378;2022-11-20T06:06:04;3.20;99.90
48488;DHT22;34289;48.572;13.378;2022-11-20T06:08:30;3.20;99.90
48488;DHT22;34289;48.572;13.378;2022-11-20T06:10:56;3.20;99.90
48488;DHT22;34289;48.572;13.378;2022-11-20T06:13:22;3.30;99.90
48488;DHT22;34289;48.572;13.378;2022-11-20T06:15:52;3.30;99.90
48488;DHT22;34289;48.572;13.378;2022-11-20T06:18:20;3.30;99.90
48488;DHT22;34289;48.572;13.378;2022-11-20T06:20:46;3.30;99.90
48488;DHT22;34289;48.572;13.378;2022-11-20T06:23:12;3.30;99.90
48488;DHT22;34289;48.572;13.378;2022-11-20T06:25:40;3.30;99.90
48488;DHT22;34289;48.572;13.378;2022-11-20T06:28:06;3.30;99.90
48488;DHT22;34289;48.572;13.378;2022-11-20T06:30:32;3.30;99.90
48488;DHT22;34289;48.572;13.378;2022-11-20T06:32:58;3.30;99.90
48488;DHT22;34289;48.572;13.378;2022-11-20T06:35:27;3.40;99.90
48488;DHT22;34289;48.572;13.378;2022-11-20T06:37:53;3.30;99.90
48488;DHT22;34289;48.572;13.378;2022-11-20T06:40:18;3.40;99.90
48488;DHT22;34289;48.572;13.378;2022-11-20T06:42:44;3.40;99.90
48488;DHT22;34289;48.572;13.378;2022-11-20T06:45:10;3.40;99.90
48488;DHT22;34289;48.572;13.378;2022-11-20T06:47:35;3.40;99.90
48488;DHT22;34289;48.572;13.378;2022-11-20T06:50:01;3.40;99.90
48488;DHT22;34289;48.572;13.378;2022-11-20T06:52:27;3.50;99.90
48488;DHT22;34289;48.572;13.378;2022-11-20T06:54:52;3.50;99.90
48488;DHT22;34289;48.572;13.378;2022-11-20T06:57:18;3.50;99.90
48488;DHT22;34289;48.572;13.378;2022-11-20T06:59:43;3.50;99.90
48488;DHT22;34289;48.572;13.378;2022-11-20T07:02:10;3.50;99.90
48488;DHT22;34289;48.572;13.378;2022-11-20T07:04:37;3.50;99.90
48488;DHT22;34289;48.572;13.378;2022-11-20T07:07:03;3.40;99.90
48488;DHT22;34289;48.572;13.378;2022-11-20T07:09:28;3.50;99.90
48488;DHT22;34289;48.572;13.378;2022-11-20T07:11:54;3.60;99.90
48488;DHT22;34289;48.572;13.378;2022-11-20T07:14:20;3.60;99.90
48488;DHT22;34289;48.572;13.378;2022-11-20T07:16:45;3.60;99.90
48488;DHT22;34289;48.572;13.378;2022-11-20T07:19:14;3.60;99.90
48488;DHT22;34289;48.572;13.378;2022-11-20T07:21:40;3.70;99.90
48488;DHT22;34289;48.572;13.378;2022-11-20T07:24:05;3.70;99.90
48488;DHT22;34289;48.572;13.378;2022-11-20T07:26:31;3.60;99.90
48488;DHT22;34289;48.572;13.378;2022-11-20T07:28:57;3.70;99.90
48488;DHT22;34289;48.572;13.378;2022-11-20T07:31:22;3.60;99.90
48488;DHT22;34289;48.572;13.378;2022-11-20T07:33:48;3.50;99.90
48488;DHT22;34289;48.572;13.378;2022-11-20T07:36:13;3.70;99.90
48488;DHT22;34289;48.572;13.378;2022-11-20T07:38:39;3.70;99.90
48488;DHT22;34289;48.572;13.378;2022-11-20T07:41:05;3.70;99.90
48488;DHT22;34289;48.572;13.378;2022-11-20T07:43:30;3.70;99.90
48488;DHT22;34289;48.572;13.378;2022-11-20T07:45:56;3.70;99.90
48488;DHT22;34289;48.572;13.378;2022-11-20T07:48:23;4.00;99.90
48488;DHT22;34289;48.572;13.378;2022-11-20T07:50:48;3.70;99.90
48488;DHT22;34289;48.572;13.378;2022-11-20T07:53:16;3.90;99.90
48488;DHT22;34289;48.572;13.378;2022-11-20T07:55:46;3.80;99.90
48488;DHT22;34289;48.572;13.378;2022-11-20T07:58:12;4.40;99.90
48488;DHT22;34289;48.572;13.378;2022-11-20T08:00:38;3.70;99.90
48488;DHT22;34289;48.572;13.378;2022-11-20T08:03:04;4.40;99.90
48488;DHT22;34289;48.572;13.378;2022-11-20T08:05:30;3.80;99.90
48488;DHT22;34289;48.572;13.378;2022-11-20T08:07:55;3.80;99.90
48488;DHT22;34289;48.572;13.378;2022-11-20T08:10:21;3.90;99.90
48488;DHT22;34289;48.572;13.378;2022-11-20T08:12:51;3.80;99.90
48488;DHT22;34289;48.572;13.378;2022-11-20T08:15:36;3.70;99.90
48488;DHT22;34289;48.572;13.378;2022-11-20T08:18:08;3.70;99.90
48488;DHT22;34289;48.572;13.378;2022-11-20T08:20:35;3.70;99.90
48488;DHT22;34289;48.572;13.378;2022-11-20T08:23:02;3.70;99.90
48488;DHT22;34289;48.572;13.378;2022-11-20T08:25:29;4.50;99.90
48488;DHT22;34289;48.572;13.378;2022-11-20T08:28:00;3.80;99.90
48488;DHT22;34289;48.572;13.378;2022-11-20T08:30:26;3.80;99.90
48488;DHT22;34289;48.572;13.378;2022-11-20T08:32:52;4.00;99.90
48488;DHT22;34289;48.572;13.378;2022-11-20T08:35:17;4.30;99.90
48488;DHT22;34289;48.572;13.378;2022-11-20T08:37:46;4.00;99.90
48488;DHT22;34289;48.572;13.378;2022-11-20T08:40:12;4.00;99.90
48488;DHT22;34289;48.572;13.378;2022-11-20T08:42:46;4.00;99.90
48488;DHT22;34289;48.572;13.378;2022-11-20T08:45:11;4.20;99.90
48488;DHT22;34289;48.572;13.378;2022-11-20T08:47:37;4.20;99.90
48488;DHT22;34289;48.572;13.378;2022-11-20T08:50:03;5.20;99.90
48488;DHT22;34289;48.572;13.378;2022-11-20T08:52:28;4.30;99.90
48488;DHT22;34289;48.572;13.378;2022-11-20T08:54:57;4.50;99.90
48488;DHT22;34289;48.572;13.378;2022-11-20T08:57:23;4.50;99.90
48488;DHT22;34289;48.572;13.378;2022-11-20T08:59:48;4.60;99.90
48488;DHT22;34289;48.572;13.378;2022-11-20T09:02:14;4.50;99.90
48488;DHT22;34289;48.572;13.378;2022-11-20T09:04:42;5.30;99.90
48488;DHT22;34289;48.572;13.378;2022-11-20T09:07:08;4.50;99.90
48488;DHT22;34289;48.572;13.378;2022-11-20T09:09:33;4.40;99.90
48488;DHT22;34289;48.572;13.378;2022-11-20T09:11:59;4.80;99.90
48488;DHT22;34289;48.572;13.378;2022-11-20T09:14:25;4.60;99.90
48488;DHT22;34289;48.572;13.378;2022-11-20T09:16:55;4.60;99.90
48488;DHT22;34289;48.572;13.378;2022-11-20T09:19:20;4.60;99.90
48488;DHT22;34289;48.572;13.378;2022-11-20T09:21:46;4.40;99.90
48488;DHT22;34289;48.572;13.378;2022-11-20T09:24:11;4.50;99.90
48488;DHT22;34289;48.572;13.378;2022-11-20T09:26:37;4.50;99.90
48488;DHT22;34289;48.572;13.378;2022-11-20T09:29:03;4.60;99.90
48488;DHT22;34289;48.572;13.378;2022-11-20T09:31:28;4.70;99.90
48488;DHT22;34289;48.572;13.378;2022-11-20T09:33:54;4.80;99.90
48488;DHT22;34289;48.572;13.378;2022-11-20T09:36:20;4.90;99.90
48488;DHT22;34289;48.572;13.378;2022-11-20T09:38:46;5.00;99.90
48488;DHT22;34289;48.572;13.378;2022-11-20T09:41:38;5.00;99.90
48488;DHT22;34289;48.572;13.378;2022-11-20T09:47:49;5.20;99.90
48488;DHT22;34289;48.572;13.378;2022-11-20T09:50:40;5.30;99.90
48488;DHT22;34289;48.572;13.378;2022-11-20T09:53:27;5.30;99.90
48488;DHT22;34289;48.572;13.378;2022-11-20T09:56:01;5.50;99.90
48488;DHT22;34289;48.572;13.378;2022-11-20T09:58:45;5.90;99.90
48488;DHT22;34289;48.572;13.378;2022-11-20T10:01:18;5.90;99.90
48488;DHT22;34289;48.572;13.378;2022-11-20T10:03:58;6.20;99.90
48488;DHT22;34289;48.572;13.378;2022-11-20T10:06:36;6.40;99.90
48488;DHT22;34289;48.572;13.378;2022-11-20T10:09:13;6.30;99.90
48488;DHT22;34289;48.572;13.378;2022-11-20T10:14:17;6.20;99.90
48488;DHT22;34289;48.572;13.378;2022-11-20T10:25:00;6.10;99.90
48488;DHT22;34289;48.572;13.378;2022-11-20T10:27:56;6.10;99.90
48488;DHT22;34289;48.572;13.378;2022-11-20T10:30:24;5.90;99.90
48488;DHT22;34289;48.572;13.378;2022-11-20T10:33:21;6.00;99.90
48488;DHT22;34289;48.572;13.378;2022-11-20T10:36:14;5.90;99.90
48488;DHT22;34289;48.572;13.378;2022-11-20T10:38:48;5.90;99.90
48488;DHT22;34289;48.572;13.378;2022-11-20T10:41:26;6.00;99.90
48488;DHT22;34289;48.572;13.378;2022-11-20T10:44:49;6.00;99.90
48488;DHT22;34289;48.572;13.378;2022-11-20T10:47:18;6.20;99.90
48488;DHT22;34289;48.572;13.378;2022-11-20T10:49:50;6.30;99.90
48488;DHT22;34289;48.572;13.378;2022-11-20T10:55:33;6.20;99.90
48488;DHT22;34289;48.572;13.378;2022-11-20T10:58:04;6.30;99.90
48488;DHT22;34289;48.572;13.378;2022-11-20T11:00:33;6.40;99.90
48488;DHT22;34289;48.572;13.378;2022-11-20T11:02:59;6.50;99.90
48488;DHT22;34289;48.572;13.378;2022-11-20T11:05:42;6.50;99.90
48488;DHT22;34289;48.572;13.378;2022-11-20T11:08:15;6.60;99.90
48488;DHT22;34289;48.572;13.378;2022-11-20T11:10:54;6.70;99.90
48488;DHT22;34289;48.572;13.378;2022-11-20T11:15:50;6.90;99.90
48488;DHT22;34289;48.572;13.378;2022-11-20T11:18:36;6.90;99.90
48488;DHT22;34289;48.572;13.378;2022-11-20T11:21:04;6.80;99.90
48488;DHT22;34289;48.572;13.378;2022-11-20T11:23:41;6.80;99.90
48488;DHT22;34289;48.572;13.378;2022-11-20T11:26:22;6.80;99.90
48488;DHT22;34289;48.572;13.378;2022-11-20T11:28:59;6.90;99.90
48488;DHT22;34289;48.572;13.378;2022-11-20T11:31:32;6.80;99.90
48488;DHT22;34289;48.572;13.378;2022-11-20T11:34:11;6.90;99.90
48488;DHT22;34289;48.572;13.378;2022-11-20T11:36:37;6.80;99.90
48488;DHT22;34289;48.572;13.378;2022-11-20T11:39:05;6.90;99.90
48488;DHT22;34289;48.572;13.378;2022-11-20T11:41:33;7.00;99.90
48488;DHT22;34289;48.572;13.378;2022-11-20T11:44:28;7.00;99.90
48488;DHT22;34289;48.572;13.378;2022-11-20T11:50:22;7.00;99.90
48488;DHT22;34289;48.572;13.378;2022-11-20T11:55:29;7.10;99.90
48488;DHT22;34289;48.572;13.378;2022-11-20T12:00:29;7.10;99.90
48488;DHT22;34289;48.572;13.378;2022-11-20T12:03:24;7.20;99.90
48488;DHT22;34289;48.572;13.378;2022-11-20T12:06:13;7.30;99.90
48488;DHT22;34289;48.572;13.378;2022-11-20T12:08:59;7.20;99.90
48488;DHT22;34289;48.572;13.378;2022-11-20T12:11:31;7.20;99.90
48488;DHT22;34289;48.572;13.378;2022-11-20T12:16:37;7.30;99.90
48488;DHT22;34289;48.572;13.378;2022-11-20T12:19:11;7.40;99.90
48488;DHT22;34289;48.572;13.378;2022-11-20T12:22:02;7.30;99.90
48488;DHT22;34289;48.572;13.378;2022-11-20T12:24:53;7.30;99.90
48488;DHT22;34289;48.572;13.378;2022-11-20T12:30:15;7.40;99.90
48488;DHT22;34289;48.572;13.378;2022-11-20T12:35:47;7.50;99.90
48488;DHT22;34289;48.572;13.378;2022-11-20T12:53:21;7.50;99.90
48488;DHT22;34289;48.572;13.378;2022-11-20T12:56:04;8.00;99.90
48488;DHT22;34289;48.572;13.378;2022-11-20T12:58:58;7.70;99.90
48488;DHT22;34289;48.572;13.378;2022-11-20T13:06:51;7.90;99.90
48488;DHT22;34289;48.572;13.378;2022-11-20T13:09:19;8.00;99.90
48488;DHT22;34289;48.572;13.378;2022-11-20T13:17:57;7.60;99.90
48488;DHT22;34289;48.572;13.378;2022-11-20T13:20:24;7.60;99.90
48488;DHT22;34289;48.572;13.378;2022-11-20T13:22:55;7.50;99.90
48488;DHT22;34289;48.572;13.378;2022-11-20T13:25:24;7.40;99.90
48488;DHT22;34289;48.572;13.378;2022-11-20T13:27:50;7.90;99.90
48488;DHT22;34289;48.572;13.378;2022-11-20T13:30:20;7.70;99.90
48488;DHT22;34289;48.572;13.378;2022-11-20T13:33:07;7.40;99.90
48488;DHT22;34289;48.572;13.378;2022-11-20T13:35:36;7.40;99.90
48488;DHT22;34289;48.572;13.378;2022-11-20T13:38:06;7.20;99.90
48488;DHT22;34289;48.572;13.378;2022-11-20T13:40:34;7.20;99.90
48488;DHT22;34289;48.572;13.378;2022-11-20T13:43:15;8.20;99.90
48488;DHT22;34289;48.572;13.378;2022-11-20T13:45:41;7.40;99.90
48488;DHT22;34289;48.572;13.378;2022-11-20T13:48:43;7.20;99.90
48488;DHT22;34289;48.572;13.378;2022-11-20T13:54:20;7.50;99.90
48488;DHT22;34289;48.572;13.378;2022-11-20T13:59:56;7.00;99.90
48488;DHT22;34289;48.572;13.378;2022-11-20T14:02:23;7.00;99.90
48488;DHT22;34289;48.572;13.378;2022-11-20T14:04:52;7.00;99.90
48488;DHT22;34289;48.572;13.378;2022-11-20T14:07:21;7.00;99.90
48488;DHT22;34289;48.572;13.378;2022-11-20T14:09:51;7.50;99.90
48488;DHT22;34289;48.572;13.378;2022-11-20T14:12:18;7.10;99.90
48488;DHT22;34289;48.572;13.378;2022-11-20T14:14:53;7.80;99.90
48488;DHT22;34289;48.572;13.378;2022-11-20T14:17:34;7.00;99.90
48488;DHT22;34289;48.572;13.378;2022-11-20T14:20:06;7.10;99.90
48488;DHT22;34289;48.572;13.378;2022-11-20T14:22:32;7.00;99.90
48488;DHT22;34289;48.572;13.378;2022-11-20T14:27:34;7.00;99.90
48488;DHT22;34289;48.572;13.378;2022-11-20T14:30:03;6.90;99.90
48488;DHT22;34289;48.572;13.378;2022-11-20T14:32:30;6.90;99.90
48488;DHT22;34289;48.572;13.378;2022-11-20T14:35:01;7.40;99.90
48488;DHT22;34289;48.572;13.378;2022-11-20T14:37:31;7.50;99.90
48488;DHT22;34289;48.572;13.378;2022-11-20T14:39:58;6.80;99.90
48488;DHT22;34289;48.572;13.378;2022-11-20T14:42:27;7.30;99.90
48488;DHT22;34289;48.572;13.378;2022-11-20T14:44:56;7.70;99.90
48488;DHT22;34289;48.572;13.378;2022-11-20T14:47:25;7.50;99.90
48488;DHT22;34289;48.572;13.378;2022-11-20T14:49:52;6.90;99.90
48488;DHT22;34289;48.572;13.378;2022-11-20T14:52:20;6.70;99.90
48488;DHT22;34289;48.572;13.378;2022-11-20T14:54:50;6.60;99.90
48488;DHT22;34289;48.572;13.378;2022-11-20T14:57:27;6.70;99.90
48488;DHT22;34289;48.572;13.378;2022-11-20T15:00:19;7.80;99.90
48488;DHT22;34289;48.572;13.378;2022-11-20T15:02:47;6.60;99.90
48488;DHT22;34289;48.572;13.378;2022-11-20T15:05:14;6.90;99.90
48488;DHT22;34289;48.572;13.378;2022-11-20T15:07:46;7.00;99.90
48488;DHT22;34289;48.572;13.378;2022-11-20T15:10:20;6.50;99.90
48488;DHT22;34289;48.572;13.378;2022-11-20T15:12:50;6.50;99.90
48488;DHT22;34289;48.572;13.378;2022-11-20T15:15:33;6.80;99.90
48488;DHT22;34289;48.572;13.378;2022-11-20T15:18:00;6.50;99.90
48488;DHT22;34289;48.572;13.378;2022-11-20T15:20:30;6.50;99.90
48488;DHT22;34289;48.572;13.378;2022-11-20T15:22:56;6.50;99.90
48488;DHT22;34289;48.572;13.378;2022-11-20T15:25:22;6.90;99.90
48488;DHT22;34289;48.572;13.378;2022-11-20T15:27:52;7.40;99.90
48488;DHT22;34289;48.572;13.378;2022-11-20T15:30:20;6.50;99.90
48488;DHT22;34289;48.572;13.378;2022-11-20T15:32:47;6.70;99.90
48488;DHT22;34289;48.572;13.378;2022-11-20T15:35:13;6.70;99.90
48488;DHT22;34289;48.572;13.378;2022-11-20T15:37:40;6.60;99.90
48488;DHT22;34289;48.572;13.378;2022-11-20T15:40:07;6.70;99.90
48488;DHT22;34289;48.572;13.378;2022-11-20T15:42:33;6.60;99.90
48488;DHT22;34289;48.572;13.378;2022-11-20T15:44:59;6.60;99.90
48488;DHT22;34289;48.572;13.378;2022-11-20T15:47:30;6.70;99.90
48488;DHT22;34289;48.572;13.378;2022-11-20T15:49:56;6.70;99.90
48488;DHT22;34289;48.572;13.378;2022-11-20T15:52:22;6.80;99.90
48488;DHT22;34289;48.572;13.378;2022-11-20T15:54:50;7.10;99.90
48488;DHT22;34289;48.572;13.378;2022-11-20T15:57:15;6.60;99.90
48488;DHT22;34289;48.572;13.378;2022-11-20T15:59:41;6.60;99.90
48488;DHT22;34289;48.572;13.378;2022-11-20T16:02:14;6.60;99.90
48488;DHT22;34289;48.572;13.378;2022-11-20T16:04:41;7.10;99.90
48488;DHT22;34289;48.572;13.378;2022-11-20T16:07:06;6.50;99.90
48488;DHT22;34289;48.572;13.378;2022-11-20T16:09:32;6.60;99.90
48488;DHT22;34289;48.572;13.378;2022-11-20T16:12:01;6.60;99.90
48488;DHT22;34289;48.572;13.378;2022-11-20T16:14:27;6.60;99.90
48488;DHT22;34289;48.572;13.378;2022-11-20T16:17:12;6.60;99.90
48488;DHT22;34289;48.572;13.378;2022-11-20T16:19:37;6.70;99.90
48488;DHT22;34289;48.572;13.378;2022-11-20T16:22:03;6.70;99.90
48488;DHT22;34289;48.572;13.378;2022-11-20T16:24:32;6.90;99.90
48488;DHT22;34289;48.572;13.378;2022-11-20T16:26:57;6.80;99.90
48488;DHT22;34289;48.572;13.378;2022-11-20T16:29:23;6.70;99.90
48488;DHT22;34289;48.572;13.378;2022-11-20T16:31:48;6.80;99.90
48488;DHT22;34289;48.572;13.378;2022-11-20T16:34:16;6.70;99.90
48488;DHT22;34289;48.572;13.378;2022-11-20T16:36:42;6.70;99.90
48488;DHT22;34289;48.572;13.378;2022-11-20T16:39:10;6.80;99.90
48488;DHT22;34289;48.572;13.378;2022-11-20T16:41:36;7.80;99.90
48488;DHT22;34289;48.572;13.378;2022-11-20T16:44:06;6.70;99.90
48488;DHT22;34289;48.572;13.378;2022-11-20T16:46:33;6.70;99.90
48488;DHT22;34289;48.572;13.378;2022-11-20T16:49:08;7.40;99.90
48488;DHT22;34289;48.572;13.378;2022-11-20T16:51:36;6.70;99.90
48488;DHT22;34289;48.572;13.378;2022-11-20T16:54:03;6.70;99.90
48488;DHT22;34289;48.572;13.378;2022-11-20T16:56:30;6.60;99.90
48488;DHT22;34289;48.572;13.378;2022-11-20T16:58:57;6.70;99.90
48488;DHT22;34289;48.572;13.378;2022-11-20T17:01:26;6.70;99.90
48488;DHT22;34289;48.572;13.378;2022-11-20T17:04:01;6.60;99.90